Time,TemperatureF,DewpointF,PressureIn,WindDirection,WindDirectionDegrees,WindSpeedMPH,WindSpeedGustMPH,Humidity,HourlyPrecipIn,Conditions,Clouds,dailyrainin,SolarRadiationWatts/m^2,SoftwareType,DateUTC
2013-02-20 00:05:00,18.8,12.5,29.99,WNW,284,10.0,10.0,76,0.00,,,0.00,0,Wunderground v.1.15,2013-02-20 05:05:00,
2013-02-20 00:09:00,18.8,12.5,29.99,West,269,9.0,12.0,76,0.00,,,0.00,0,Wunderground v.1.15,2013-02-20 05:09:00,
2013-02-20 00:14:00,18.8,12.5,29.99,WNW,300,8.0,9.0,76,0.00,,,0.00,0,Wunderground v.1.15,2013-02-20 05:14:00,
2013-02-20 00:19:00,18.6,12.3,29.99,West,270,7.0,9.0,76,0.00,,,0.00,0,Wunderground v.1.15,2013-02-20 05:19:00,
2013-02-20 00:24:00,18.7,12.7,29.99,West,277,6.0,11.0,77,0.00,,,0.00,0,Wunderground v.1.15,2013-02-20 05:24:00,
2013-02-20 00:29:00,18.6,12.9,29.99,West,281,8.0,15.0,78,0.00,,,0.00,0,Wunderground v.1.15,2013-02-20 05:29:00,
2013-02-20 00:34:00,18.6,12.9,30.00,WNW,299,9.0,9.0,78,0.00,,,0.00,0,Wunderground v.1.15,2013-02-20 05:34:00,
2013-02-20 00:39:00,18.5,12.8,30.00,West,269,7.0,11.0,78,0.00,,,0.00,0,Wunderground v.1.15,2013-02-20 05:39:00,
2013-02-20 00:44:00,18.4,12.7,30.00,WNW,286,6.0,18.0,78,0.00,,,0.00,0,Wunderground v.1.15,2013-02-20 05:44:00,
2013-02-20 00:54:00,18.3,12.6,30.00,WNW,290,5.0,5.0,78,0.00,,,0.00,0,Wunderground v.1.15,2013-02-20 05:54:00,
2013-02-20 01:04:00,18.3,12.9,30.00,West,274,8.0,10.0,79,0.00,,,0.00,0,Wunderground v.1.15,2013-02-20 06:04:00,
2013-02-20 01:09:00,18.2,12.5,30.01,West,270,7.0,10.0,78,0.00,,,0.00,0,Wunderground v.1.15,2013-02-20 06:09:00,
2013-02-20 01:14:00,18.1,12.7,30.01,WNW,283,6.0,7.0,79,0.00,,,0.00,0,Wunderground v.1.15,2013-02-20 06:14:00,
2013-02-20 01:19:00,18.2,12.8,30.01,West,275,7.0,7.0,79,0.00,,,0.00,0,Wunderground v.1.15,2013-02-20 06:19:00,
2013-02-20 01:24:00,18.1,12.7,30.01,WSW,256,6.0,6.0,79,0.00,,,0.00,0,Wunderground v.1.15,2013-02-20 06:24:00,
2013-02-20 01:29:00,18.1,13.0,30.02,WNW,288,5.0,21.0,80,0.00,,,0.00,0,Wunderground v.1.15,2013-02-20 06:29:00,
2013-02-20 01:34:00,18.2,13.1,30.02,WNW,290,6.0,21.0,80,0.00,,,0.00,0,Wunderground v.1.15,2013-02-20 06:34:00,
2013-02-20 01:39:00,18.2,13.1,30.02,West,275,6.0,21.0,80,0.00,,,0.00,0,Wunderground v.1.15,2013-02-20 06:39:00,
2013-02-20 01:44:00,18.3,12.9,30.02,West,276,6.0,6.0,79,0.00,,,0.00,0,Wunderground v.1.15,2013-02-20 06:44:00,
2013-02-20 01:59:00,18.4,12.7,30.02,West,265,8.0,10.0,78,0.00,,,0.00,0,Wunderground v.1.15,2013-02-20 06:59:00,
2013-02-20 02:04:00,18.4,12.4,30.02,NNW,336,9.0,10.0,77,0.00,,,0.00,0,Wunderground v.1.15,2013-02-20 07:04:00,
2013-02-20 02:09:00,18.4,12.4,30.02,WNW,290,9.0,9.0,77,0.00,,,0.00,0,Wunderground v.1.15,2013-02-20 07:09:00,
2013-02-20 02:14:00,18.3,12.3,30.02,WNW,287,9.0,9.0,77,0.00,,,0.00,0,Wunderground v.1.15,2013-02-20 07:14:00,
2013-02-20 02:19:00,18.3,12.3,30.03,WNW,283,8.0,8.0,77,0.00,,,0.00,0,Wunderground v.1.15,2013-02-20 07:19:00,
2013-02-20 02:24:00,18.2,12.2,30.03,West,280,7.0,8.0,77,0.00,,,0.00,0,Wunderground v.1.15,2013-02-20 07:24:00,
2013-02-20 02:29:00,18.1,12.4,30.03,SW,236,6.0,6.0,78,0.00,,,0.00,0,Wunderground v.1.15,2013-02-20 07:29:00,
2013-02-20 02:34:00,18.1,12.4,30.03,West,271,7.0,11.0,78,0.00,,,0.00,0,Wunderground v.1.15,2013-02-20 07:34:00,
2013-02-20 02:39:00,18.1,12.4,30.03,West,269,8.0,8.0,78,0.00,,,0.00,0,Wunderground v.1.15,2013-02-20 07:39:00,
2013-02-20 02:44:00,18.2,12.5,30.03,West,268,9.0,9.0,78,0.00,,,0.00,0,Wunderground v.1.15,2013-02-20 07:44:00,
2013-02-20 02:49:00,18.2,12.5,30.03,West,265,9.0,9.0,78,0.00,,,0.00,0,Wunderground v.1.15,2013-02-20 07:49:00,
2013-02-20 02:55:00,18.2,12.5,30.03,West,261,8.0,11.0,78,0.00,,,0.00,0,Wunderground v.1.15,2013-02-20 07:55:00,
2013-02-20 03:05:00,18.3,12.6,30.03,West,270,8.0,8.0,78,0.00,,,0.00,0,Wunderground v.1.15,2013-02-20 08:05:00,
2013-02-20 03:19:00,18.4,12.7,30.03,WNW,296,8.0,8.0,78,0.00,,,0.00,0,Wunderground v.1.15,2013-02-20 08:19:00,
2013-02-20 03:29:00,18.5,12.5,30.03,West,268,7.0,19.0,77,0.00,,,0.00,0,Wunderground v.1.15,2013-02-20 08:29:00,
2013-02-20 03:39:00,18.4,12.7,30.03,NW,309,7.0,7.0,78,0.00,,,0.00,0,Wunderground v.1.15,2013-02-20 08:39:00,
2013-02-20 03:44:00,18.5,12.8,30.04,West,274,8.0,8.0,78,0.00,,,0.00,0,Wunderground v.1.15,2013-02-20 08:44:00,
2013-02-20 03:59:00,18.1,13.0,30.05,WNW,302,10.0,10.0,80,0.00,,,0.00,0,Wunderground v.1.15,2013-02-20 08:59:00,
2013-02-20 04:04:00,17.8,13.8,30.05,NNW,348,8.0,8.0,84,0.00,,,0.00,0,Wunderground v.1.15,2013-02-20 09:04:00,
2013-02-20 04:09:00,17.4,13.9,30.05,WNW,282,8.0,11.0,86,0.00,,,0.00,0,Wunderground v.1.15,2013-02-20 09:09:00,
2013-02-20 04:14:00,17.3,14.1,30.05,NW,313,9.0,11.0,87,0.00,,,0.00,0,Wunderground v.1.15,2013-02-20 09:14:00,
2013-02-20 04:19:00,17.3,13.8,30.06,WNW,287,7.0,8.0,86,0.00,,,0.00,0,Wunderground v.1.15,2013-02-20 09:19:00,
2013-02-20 04:24:00,17.3,13.8,30.06,NW,306,6.0,8.0,86,0.00,,,0.00,0,Wunderground v.1.15,2013-02-20 09:24:00,
2013-02-20 04:29:00,17.3,13.6,30.06,WNW,296,6.0,18.0,85,0.00,,,0.00,0,Wunderground v.1.15,2013-02-20 09:29:00,
2013-02-20 04:34:00,17.3,13.0,30.07,WNW,292,7.0,18.0,83,0.00,,,0.00,0,Wunderground v.1.15,2013-02-20 09:34:00,
2013-02-20 04:39:00,17.2,12.6,30.07,NW,324,8.0,18.0,82,0.00,,,0.00,0,Wunderground v.1.15,2013-02-20 09:39:00,
2013-02-20 04:44:00,17.3,11.6,30.08,NW,310,8.0,18.0,78,0.00,,,0.00,0,Wunderground v.1.15,2013-02-20 09:44:00,
2013-02-20 04:54:00,17.3,11.3,30.08,WNW,293,8.0,10.0,77,0.00,,,0.00,0,Wunderground v.1.15,2013-02-20 09:54:00,
2013-02-20 05:04:00,17.2,9.4,30.09,WNW,296,9.0,9.0,71,0.00,,,0.00,0,Wunderground v.1.15,2013-02-20 10:04:00,
2013-02-20 05:09:00,17.2,8.8,30.09,WNW,287,8.0,9.0,69,0.00,,,0.00,0,Wunderground v.1.15,2013-02-20 10:09:00,
2013-02-20 05:14:00,17.2,8.4,30.09,NW,304,9.0,10.0,68,0.00,,,0.00,0,Wunderground v.1.15,2013-02-20 10:14:00,
2013-02-20 05:19:00,17.3,8.2,30.09,NW,318,9.0,12.0,67,0.00,,,0.00,0,Wunderground v.1.15,2013-02-20 10:19:00,
2013-02-20 05:24:00,17.2,8.1,30.09,WNW,288,10.0,10.0,67,0.00,,,0.00,0,Wunderground v.1.15,2013-02-20 10:24:00,
2013-02-20 05:34:00,17.2,8.4,30.10,WNW,295,10.0,10.0,68,0.00,,,0.00,0,Wunderground v.1.15,2013-02-20 10:34:00,
2013-02-20 05:44:00,17.2,8.8,30.10,WNW,286,9.0,9.0,69,0.00,,,0.00,0,Wunderground v.1.15,2013-02-20 10:44:00,
2013-02-20 05:54:00,17.2,9.1,30.11,WNW,301,7.0,7.0,70,0.00,,,0.00,0,Wunderground v.1.15,2013-02-20 10:54:00,
2013-02-20 06:04:00,17.2,9.7,30.10,WNW,290,8.0,8.0,72,0.00,,,0.00,0,Wunderground v.1.15,2013-02-20 11:04:00,
2013-02-20 06:09:00,17.1,9.6,30.10,WNW,298,8.0,8.0,72,0.00,,,0.00,0,Wunderground v.1.15,2013-02-20 11:09:00,
2013-02-20 06:14:00,17.1,9.6,30.10,WSW,256,6.0,8.0,72,0.00,,,0.00,0,Wunderground v.1.15,2013-02-20 11:14:00,
2013-02-20 06:19:00,17.1,9.6,30.10,WNW,283,7.0,8.0,72,0.00,,,0.00,0,Wunderground v.1.15,2013-02-20 11:19:00,
2013-02-20 06:24:00,17.0,9.5,30.10,WNW,300,7.0,8.0,72,0.00,,,0.00,0,Wunderground v.1.15,2013-02-20 11:24:00,
2013-02-20 06:29:00,16.9,9.4,30.10,WNW,294,7.0,10.0,72,0.00,,,0.00,0,Wunderground v.1.15,2013-02-20 11:29:00,
2013-02-20 06:34:00,16.9,9.4,30.10,WNW,291,6.0,6.0,72,0.00,,,0.00,0,Wunderground v.1.15,2013-02-20 11:34:00,
2013-02-20 06:39:00,16.9,9.4,30.10,West,271,8.0,8.0,72,0.00,,,0.00,0,Wunderground v.1.15,2013-02-20 11:39:00,
2013-02-20 06:44:00,16.9,9.4,30.11,WNW,293,9.0,9.0,72,0.00,,,0.00,0,Wunderground v.1.15,2013-02-20 11:44:00,
2013-02-20 06:49:00,16.8,9.6,30.11,WNW,300,8.0,20.0,73,0.00,,,0.00,0,Wunderground v.1.15,2013-02-20 11:49:00,
2013-02-20 06:55:00,16.8,9.9,30.11,WNW,287,8.0,8.0,74,0.00,,,0.00,0,Wunderground v.1.15,2013-02-20 11:55:00,
2013-02-20 07:04:00,16.8,10.2,30.12,WNW,302,8.0,9.0,75,0.00,,,0.00,0,Wunderground v.1.15,2013-02-20 12:04:00,
2013-02-20 07:09:00,16.7,10.1,30.12,WSW,254,6.0,9.0,75,0.00,,,0.00,0,Wunderground v.1.15,2013-02-20 12:09:00,
2013-02-20 07:14:00,16.6,10.3,30.12,WNW,290,6.0,6.0,76,0.00,,,0.00,0,Wunderground v.1.15,2013-02-20 12:14:00,
2013-02-20 07:19:00,16.7,10.4,30.13,WNW,302,5.0,7.0,76,0.00,,,0.00,0,Wunderground v.1.15,2013-02-20 12:19:00,
2013-02-20 07:24:00,16.7,10.4,30.13,West,259,6.0,6.0,76,0.00,,,0.00,0,Wunderground v.1.15,2013-02-20 12:24:00,
2013-02-20 07:29:00,16.8,10.5,30.13,WNW,292,6.0,15.0,76,0.00,,,0.00,5,Wunderground v.1.15,2013-02-20 12:29:00,
2013-02-20 07:39:00,16.9,10.3,30.13,WNW,300,5.0,15.0,75,0.00,,,0.00,16,Wunderground v.1.15,2013-02-20 12:39:00,
2013-02-20 07:44:00,17.0,10.4,30.14,WNW,290,7.0,15.0,75,0.00,,,0.00,23,Wunderground v.1.15,2013-02-20 12:44:00,
2013-02-20 07:49:00,17.1,10.2,30.14,WSW,254,7.0,15.0,74,0.00,,,0.00,32,Wunderground v.1.15,2013-02-20 12:49:00,
2013-02-20 07:55:00,17.2,10.3,30.14,WNW,300,7.0,7.0,74,0.00,,,0.00,47,Wunderground v.1.15,2013-02-20 12:55:00,
2013-02-20 08:04:00,17.4,10.2,30.14,WNW,295,7.0,7.0,73,0.00,,,0.00,54,Wunderground v.1.15,2013-02-20 13:04:00,
2013-02-20 08:14:00,17.6,10.1,30.14,WNW,296,7.0,7.0,72,0.00,,,0.00,53,Wunderground v.1.15,2013-02-20 13:14:00,
2013-02-20 08:24:00,17.7,9.9,30.15,NNW,336,7.0,7.0,71,0.00,,,0.00,63,Wunderground v.1.15,2013-02-20 13:24:00,
2013-02-20 08:29:00,17.9,10.1,30.15,West,275,8.0,10.0,71,0.00,,,0.00,171,Wunderground v.1.15,2013-02-20 13:29:00,
2013-02-20 08:39:00,18.3,10.1,30.15,NNW,331,7.0,11.0,70,0.00,,,0.00,95,Wunderground v.1.15,2013-02-20 13:39:00,
2013-02-20 08:44:00,18.6,10.4,30.15,West,277,7.0,7.0,70,0.00,,,0.00,153,Wunderground v.1.15,2013-02-20 13:44:00,
2013-02-20 08:49:00,18.8,10.6,30.15,West,279,7.0,10.0,70,0.00,,,0.00,120,Wunderground v.1.15,2013-02-20 13:49:00,
2013-02-20 08:55:00,18.6,10.4,30.15,NW,316,7.0,17.0,70,0.00,,,0.00,86,Wunderground v.1.15,2013-02-20 13:55:00,
2013-02-20 09:04:00,18.8,10.3,30.15,NW,309,10.0,12.0,69,0.00,,,0.00,118,Wunderground v.1.15,2013-02-20 14:04:00,
2013-02-20 09:14:00,18.9,10.4,30.16,WNW,292,10.0,10.0,69,0.00,,,0.00,153,Wunderground v.1.15,2013-02-20 14:14:00,
2013-02-20 09:24:00,19.0,10.2,30.16,NW,312,10.0,13.0,68,0.00,,,0.00,202,Wunderground v.1.15,2013-02-20 14:24:00,
2013-02-20 09:34:00,19.2,10.4,30.16,NW,323,11.0,15.0,68,0.00,,,0.00,338,Wunderground v.1.15,2013-02-20 14:34:00,
2013-02-20 09:44:00,19.7,10.5,30.16,NNW,332,9.0,15.0,67,0.00,,,0.00,251,Wunderground v.1.15,2013-02-20 14:44:00,
2013-02-20 09:49:00,19.7,10.5,30.16,NNW,329,10.0,15.0,67,0.00,,,0.00,209,Wunderground v.1.15,2013-02-20 14:49:00,
2013-02-20 09:55:00,19.9,10.7,30.16,NW,317,9.0,9.0,67,0.00,,,0.00,216,Wunderground v.1.15,2013-02-20 14:55:00,
2013-02-20 10:04:00,19.8,10.6,30.16,NNW,327,10.0,10.0,67,0.00,,,0.00,236,Wunderground v.1.15,2013-02-20 15:04:00,
2013-02-20 10:09:00,19.9,10.7,30.17,NW,320,9.0,10.0,67,0.00,,,0.00,227,Wunderground v.1.15,2013-02-20 15:09:00,
2013-02-20 10:14:00,19.9,10.7,30.16,North,355,10.0,10.0,67,0.00,,,0.00,227,Wunderground v.1.15,2013-02-20 15:14:00,
2013-02-20 10:24:00,19.9,10.7,30.17,WNW,300,11.0,13.0,67,0.00,,,0.00,220,Wunderground v.1.15,2013-02-20 15:24:00,
2013-02-20 10:29:00,20.1,10.6,30.17,WNW,301,11.0,21.0,66,0.00,,,0.00,318,Wunderground v.1.15,2013-02-20 15:29:00,
2013-02-20 10:34:00,20.2,10.6,30.17,NNW,328,10.0,10.0,66,0.00,,,0.00,193,Wunderground v.1.15,2013-02-20 15:34:00,
2013-02-20 10:39:00,20.3,10.7,30.17,NW,313,8.0,21.0,66,0.00,,,0.00,229,Wunderground v.1.15,2013-02-20 15:39:00,
2013-02-20 10:44:00,20.4,10.8,30.17,North,5,8.0,8.0,66,0.00,,,0.00,214,Wunderground v.1.15,2013-02-20 15:44:00,
2013-02-20 10:49:00,20.4,10.8,30.17,WNW,286,9.0,9.0,66,0.00,,,0.00,188,Wunderground v.1.15,2013-02-20 15:49:00,
2013-02-20 10:55:00,20.3,10.7,30.18,NW,314,10.0,10.0,66,0.00,,,0.00,186,Wunderground v.1.15,2013-02-20 15:55:00,
2013-02-20 11:04:00,20.4,11.2,30.18,WNW,296,7.0,7.0,67,0.00,,,0.00,176,Wunderground v.1.15,2013-02-20 16:04:00,
2013-02-20 11:09:00,20.3,11.4,30.18,WNW,287,8.0,9.0,68,0.00,,,0.00,179,Wunderground v.1.15,2013-02-20 16:09:00,
2013-02-20 11:14:00,20.2,11.7,30.18,WNW,300,9.0,10.0,69,0.00,,,0.00,209,Wunderground v.1.15,2013-02-20 16:14:00,
2013-02-20 11:24:00,20.4,11.5,30.19,NW,321,8.0,8.0,68,0.00,,,0.00,225,Wunderground v.1.15,2013-02-20 16:24:00,
2013-02-20 11:34:00,20.4,11.8,30.19,NW,306,9.0,9.0,69,0.00,,,0.00,190,Wunderground v.1.15,2013-02-20 16:34:00,
2013-02-20 11:39:00,20.4,12.2,30.19,NW,321,9.0,10.0,70,0.00,,,0.00,190,Wunderground v.1.15,2013-02-20 16:39:00,
2013-02-20 11:49:00,20.4,12.2,30.19,West,280,8.0,10.0,70,0.00,,,0.00,207,Wunderground v.1.15,2013-02-20 16:49:00,
2013-02-20 11:55:00,20.4,11.8,30.20,NW,304,8.0,12.0,69,0.00,,,0.00,214,Wunderground v.1.15,2013-02-20 16:55:00,
2013-02-20 12:04:00,20.6,12.4,30.20,NW,316,7.0,7.0,70,0.00,,,0.00,265,Wunderground v.1.15,2013-02-20 17:04:00,
2013-02-20 12:14:00,20.9,11.7,30.20,WNW,286,8.0,9.0,67,0.00,,,0.00,204,Wunderground v.1.15,2013-02-20 17:14:00,
2013-02-20 12:24:00,20.8,11.9,30.20,WNW,287,9.0,9.0,68,0.00,,,0.00,269,Wunderground v.1.15,2013-02-20 17:24:00,
2013-02-20 12:34:00,20.7,11.8,30.21,NW,309,10.0,10.0,68,0.00,,,0.00,214,Wunderground v.1.15,2013-02-20 17:34:00,
2013-02-20 12:44:00,21.1,11.5,30.21,WNW,288,8.0,16.0,66,0.00,,,0.00,250,Wunderground v.1.15,2013-02-20 17:44:00,
2013-02-20 12:49:00,21.2,11.6,30.21,NW,311,9.0,16.0,66,0.00,,,0.00,234,Wunderground v.1.15,2013-02-20 17:49:00,
2013-02-20 12:55:00,21.2,11.9,30.21,West,271,9.0,9.0,67,0.00,,,0.00,257,Wunderground v.1.15,2013-02-20 17:55:00,
2013-02-20 13:04:00,21.2,11.6,30.21,WNW,291,9.0,9.0,66,0.00,,,0.00,253,Wunderground v.1.15,2013-02-20 18:04:00,
2013-02-20 13:14:00,21.5,12.2,30.21,WNW,288,8.0,8.0,67,0.00,,,0.00,272,Wunderground v.1.15,2013-02-20 18:14:00,
2013-02-20 13:19:00,21.7,12.1,30.21,West,277,7.0,11.0,66,0.00,,,0.00,320,Wunderground v.1.15,2013-02-20 18:19:00,
2013-02-20 13:24:00,21.7,11.7,30.21,WNW,302,8.0,8.0,65,0.00,,,0.00,288,Wunderground v.1.15,2013-02-20 18:24:00,
2013-02-20 13:29:00,21.7,11.7,30.21,NW,323,10.0,10.0,65,0.00,,,0.00,279,Wunderground v.1.15,2013-02-20 18:29:00,
2013-02-20 13:34:00,21.9,11.9,30.22,WNW,293,8.0,19.0,65,0.00,,,0.00,258,Wunderground v.1.15,2013-02-20 18:34:00,
2013-02-20 13:39:00,21.7,12.4,30.22,WNW,286,8.0,19.0,67,0.00,,,0.00,200,Wunderground v.1.15,2013-02-20 18:39:00,
2013-02-20 13:49:00,21.6,12.0,30.22,WNW,283,9.0,19.0,66,0.00,,,0.00,229,Wunderground v.1.15,2013-02-20 18:49:00,
2013-02-20 13:55:00,21.7,12.1,30.22,NW,315,8.0,8.0,66,0.00,,,0.00,218,Wunderground v.1.15,2013-02-20 18:55:00,
2013-02-20 14:04:00,22.1,12.5,30.22,NW,316,6.0,6.0,66,0.00,,,0.00,172,Wunderground v.1.15,2013-02-20 19:04:00,
2013-02-20 14:09:00,22.0,13.0,30.22,WNW,298,5.0,9.0,68,0.00,,,0.00,181,Wunderground v.1.15,2013-02-20 19:09:00,
2013-02-20 14:19:00,21.8,12.9,30.22,NW,320,6.0,6.0,68,0.00,,,0.00,169,Wunderground v.1.15,2013-02-20 19:19:00,
2013-02-20 14:24:00,21.9,13.3,30.22,WNW,286,7.0,7.0,69,0.00,,,0.00,176,Wunderground v.1.15,2013-02-20 19:24:00,
2013-02-20 14:29:00,21.9,13.0,30.22,WNW,302,7.0,17.0,68,0.00,,,0.00,188,Wunderground v.1.15,2013-02-20 19:29:00,
2013-02-20 14:34:00,22.0,12.7,30.22,NW,319,7.0,17.0,67,0.00,,,0.00,178,Wunderground v.1.15,2013-02-20 19:34:00,
2013-02-20 14:39:00,22.0,13.0,30.22,NW,306,7.0,17.0,68,0.00,,,0.00,197,Wunderground v.1.15,2013-02-20 19:39:00,
2013-02-20 14:49:00,21.6,13.6,30.22,WNW,297,7.0,17.0,71,0.00,,,0.00,214,Wunderground v.1.15,2013-02-20 19:49:00,
2013-02-20 14:55:00,21.8,14.2,30.22,NNW,327,6.0,11.0,72,0.00,,,0.00,229,Wunderground v.1.15,2013-02-20 19:55:00,
2013-02-20 15:04:00,21.8,13.8,30.22,West,279,7.0,10.0,71,0.00,,,0.00,178,Wunderground v.1.15,2013-02-20 20:04:00,
2013-02-20 15:09:00,21.8,13.8,30.22,WSW,257,6.0,11.0,71,0.00,,,0.00,153,Wunderground v.1.15,2013-02-20 20:09:00,
2013-02-20 15:24:00,21.9,13.6,30.22,NW,325,7.0,7.0,70,0.00,,,0.00,178,Wunderground v.1.15,2013-02-20 20:24:00,
2013-02-20 15:29:00,22.0,13.7,30.23,NW,313,6.0,15.0,70,0.00,,,0.00,151,Wunderground v.1.15,2013-02-20 20:29:00,
2013-02-20 15:34:00,22.1,13.8,30.23,West,267,6.0,6.0,70,0.00,,,0.00,149,Wunderground v.1.15,2013-02-20 20:34:00,
2013-02-20 15:39:00,22.0,13.4,30.24,WNW,300,7.0,10.0,69,0.00,,,0.00,144,Wunderground v.1.15,2013-02-20 20:39:00,
2013-02-20 15:44:00,22.0,13.7,30.24,WNW,292,7.0,15.0,70,0.00,,,0.00,114,Wunderground v.1.15,2013-02-20 20:44:00,
2013-02-20 15:49:00,22.0,13.7,30.24,NW,318,7.0,15.0,70,0.00,,,0.00,128,Wunderground v.1.15,2013-02-20 20:49:00,
2013-02-20 15:55:00,22.0,14.0,30.24,NW,319,7.0,10.0,71,0.00,,,0.00,114,Wunderground v.1.15,2013-02-20 20:55:00,
2013-02-20 16:04:00,22.1,14.1,30.25,WNW,287,7.0,7.0,71,0.00,,,0.00,98,Wunderground v.1.15,2013-02-20 21:04:00,
2013-02-20 16:14:00,22.3,14.0,30.26,NW,305,5.0,8.0,70,0.00,,,0.00,93,Wunderground v.1.15,2013-02-20 21:14:00,
2013-02-20 16:19:00,22.2,13.6,30.27,NW,306,7.0,8.0,69,0.00,,,0.00,74,Wunderground v.1.15,2013-02-20 21:19:00,
2013-02-20 16:29:00,22.2,14.2,30.27,West,266,7.0,14.0,71,0.00,,,0.00,67,Wunderground v.1.15,2013-02-20 21:29:00,
2013-02-20 16:34:00,22.1,14.4,30.27,WNW,293,7.0,7.0,72,0.00,,,0.00,62,Wunderground v.1.15,2013-02-20 21:34:00,
2013-02-20 16:39:00,22.1,14.4,30.27,WNW,286,7.0,14.0,72,0.00,,,0.00,56,Wunderground v.1.15,2013-02-20 21:39:00,
2013-02-20 16:49:00,22.1,14.4,30.28,WNW,282,7.0,9.0,72,0.00,,,0.00,47,Wunderground v.1.15,2013-02-20 21:49:00,
2013-02-20 16:55:00,22.0,14.3,30.28,West,259,7.0,7.0,72,0.00,,,0.00,44,Wunderground v.1.15,2013-02-20 21:55:00,
2013-02-20 17:04:00,22.0,14.7,30.28,WNW,282,7.0,7.0,73,0.00,,,0.00,37,Wunderground v.1.15,2013-02-20 22:04:00,
2013-02-20 17:09:00,22.0,15.0,30.28,WNW,284,6.0,9.0,74,0.00,,,0.00,37,Wunderground v.1.15,2013-02-20 22:09:00,
2013-02-20 17:14:00,22.0,14.7,30.28,WNW,285,6.0,10.0,73,0.00,,,0.00,33,Wunderground v.1.15,2013-02-20 22:14:00,
2013-02-20 17:19:00,22.0,14.7,30.28,WSW,258,7.0,10.0,73,0.00,,,0.00,30,Wunderground v.1.15,2013-02-20 22:19:00,
2013-02-20 17:24:00,22.0,14.7,30.28,West,269,7.0,13.0,73,0.00,,,0.00,28,Wunderground v.1.15,2013-02-20 22:24:00,
2013-02-20 17:29:00,22.0,14.7,30.27,WNW,298,8.0,16.0,73,0.00,,,0.00,28,Wunderground v.1.15,2013-02-20 22:29:00,
2013-02-20 17:39:00,22.0,15.0,30.27,NW,318,7.0,16.0,74,0.00,,,0.00,23,Wunderground v.1.15,2013-02-20 22:39:00,
2013-02-20 17:44:00,22.0,14.7,30.27,WNW,295,6.0,6.0,73,0.00,,,0.00,18,Wunderground v.1.15,2013-02-20 22:44:00,
2013-02-20 17:49:00,22.0,15.0,30.27,WNW,286,6.0,13.0,74,0.00,,,0.00,14,Wunderground v.1.15,2013-02-20 22:49:00,
2013-02-20 17:55:00,22.0,15.0,30.27,West,275,7.0,10.0,74,0.00,,,0.00,11,Wunderground v.1.15,2013-02-20 22:55:00,
2013-02-20 18:04:00,22.0,15.0,30.26,WNW,295,8.0,8.0,74,0.00,,,0.00,5,Wunderground v.1.15,2013-02-20 23:04:00,
2013-02-20 18:09:00,22.0,15.3,30.26,NW,315,5.0,8.0,75,0.00,,,0.00,0,Wunderground v.1.15,2013-02-20 23:09:00,
2013-02-20 18:14:00,22.0,15.3,30.26,NNW,329,5.0,6.0,75,0.00,,,0.00,0,Wunderground v.1.15,2013-02-20 23:14:00,
2013-02-20 18:19:00,22.1,15.1,30.26,WNW,290,6.0,7.0,74,0.00,,,0.00,0,Wunderground v.1.15,2013-02-20 23:19:00,
2013-02-20 18:24:00,22.1,15.1,30.26,NW,304,7.0,10.0,74,0.00,,,0.00,0,Wunderground v.1.15,2013-02-20 23:24:00,
2013-02-20 18:29:00,22.1,15.1,30.26,NW,317,7.0,15.0,74,0.00,,,0.00,0,Wunderground v.1.15,2013-02-20 23:29:00,
2013-02-20 18:34:00,22.1,15.1,30.26,West,278,6.0,15.0,74,0.00,,,0.00,0,Wunderground v.1.15,2013-02-20 23:34:00,
2013-02-20 18:44:00,22.2,15.2,30.26,NW,322,6.0,6.0,74,0.00,,,0.00,0,Wunderground v.1.15,2013-02-20 23:44:00,
2013-02-20 18:49:00,22.2,15.5,30.27,NW,306,4.0,15.0,75,0.00,,,0.00,0,Wunderground v.1.15,2013-02-20 23:49:00,
2013-02-20 18:55:00,22.2,15.2,30.27,NW,310,5.0,8.0,74,0.00,,,0.00,0,Wunderground v.1.15,2013-02-20 23:55:00,
2013-02-20 19:04:00,22.3,15.3,30.28,NW,312,6.0,7.0,74,0.00,,,0.00,0,Wunderground v.1.15,2013-02-21 00:04:00,
2013-02-20 19:14:00,22.4,15.7,30.27,NW,314,6.0,6.0,75,0.00,,,0.00,0,Wunderground v.1.15,2013-02-21 00:14:00,
2013-02-20 19:24:00,22.4,15.7,30.28,NW,311,6.0,8.0,75,0.00,,,0.00,0,Wunderground v.1.15,2013-02-21 00:24:00,
2013-02-20 19:29:00,22.4,15.7,30.28,NNW,329,7.0,14.0,75,0.00,,,0.00,0,Wunderground v.1.15,2013-02-21 00:29:00,
2013-02-20 19:34:00,22.4,16.0,30.28,WNW,290,6.0,14.0,76,0.00,,,0.00,0,Wunderground v.1.15,2013-02-21 00:34:00,
2013-02-20 19:44:00,22.5,16.1,30.28,NW,311,6.0,14.0,76,0.00,,,0.00,0,Wunderground v.1.15,2013-02-21 00:44:00,
2013-02-20 19:55:00,22.6,16.2,30.28,NW,314,6.0,6.0,76,0.00,,,0.00,0,Wunderground v.1.15,2013-02-21 00:55:00,
2013-02-20 20:04:00,22.6,16.2,30.28,WNW,292,5.0,9.0,76,0.00,,,0.00,0,Wunderground v.1.15,2013-02-21 01:04:00,
2013-02-20 20:09:00,22.6,16.2,30.27,WNW,288,6.0,9.0,76,0.00,,,0.00,0,Wunderground v.1.15,2013-02-21 01:09:00,
2013-02-20 20:14:00,22.7,16.3,30.28,NNW,334,7.0,8.0,76,0.00,,,0.00,0,Wunderground v.1.15,2013-02-21 01:14:00,
2013-02-20 20:24:00,22.7,16.3,30.28,NW,317,6.0,6.0,76,0.00,,,0.00,0,Wunderground v.1.15,2013-02-21 01:24:00,
2013-02-20 20:34:00,22.7,16.3,30.28,NW,311,5.0,13.0,76,0.00,,,0.00,0,Wunderground v.1.15,2013-02-21 01:34:00,
2013-02-20 20:39:00,22.7,16.3,30.29,NW,304,5.0,13.0,76,0.00,,,0.00,0,Wunderground v.1.15,2013-02-21 01:39:00,
2013-02-20 20:44:00,22.7,16.3,30.28,NW,306,5.0,13.0,76,0.00,,,0.00,0,Wunderground v.1.15,2013-02-21 01:44:00,
2013-02-20 20:54:00,22.8,16.7,30.28,NW,307,6.0,6.0,77,0.00,,,0.00,0,Wunderground v.1.15,2013-02-21 01:54:00,
2013-02-20 21:04:00,22.8,16.4,30.29,NNW,337,6.0,6.0,76,0.00,,,0.00,0,Wunderground v.1.15,2013-02-21 02:04:00,
2013-02-20 21:09:00,22.9,16.8,30.29,NW,309,6.0,6.0,77,0.00,,,0.00,0,Wunderground v.1.15,2013-02-21 02:09:00,
2013-02-20 21:14:00,22.9,16.8,30.29,NW,319,6.0,8.0,77,0.00,,,0.00,0,Wunderground v.1.15,2013-02-21 02:14:00,
2013-02-20 21:24:00,22.9,16.8,30.29,NW,315,7.0,8.0,77,0.00,,,0.00,0,Wunderground v.1.15,2013-02-21 02:24:00,
2013-02-20 21:34:00,22.8,17.0,30.29,NNW,340,8.0,13.0,78,0.00,,,0.00,0,Wunderground v.1.15,2013-02-21 02:34:00,
2013-02-20 21:44:00,22.8,16.7,30.29,NW,310,9.0,9.0,77,0.00,,,0.00,0,Wunderground v.1.15,2013-02-21 02:44:00,
2013-02-20 21:54:00,22.7,17.2,30.29,North,11,7.0,13.0,79,0.00,,,0.00,0,Wunderground v.1.15,2013-02-21 02:54:00,
2013-02-20 22:04:00,22.4,17.5,30.30,NW,319,7.0,8.0,81,0.00,,,0.00,0,Wunderground v.1.15,2013-02-21 03:04:00,
2013-02-20 22:09:00,22.3,17.6,30.29,North,355,6.0,8.0,82,0.00,,,0.00,0,Wunderground v.1.15,2013-02-21 03:09:00,
2013-02-20 22:24:00,22.2,17.3,30.30,NW,317,7.0,7.0,81,0.00,,,0.00,0,Wunderground v.1.15,2013-02-21 03:24:00,
2013-02-20 22:34:00,22.4,17.2,30.30,NNW,327,8.0,8.0,80,0.00,,,0.00,0,Wunderground v.1.15,2013-02-21 03:34:00,
2013-02-20 22:44:00,22.3,17.1,30.30,NW,313,7.0,13.0,80,0.00,,,0.00,0,Wunderground v.1.15,2013-02-21 03:44:00,
2013-02-20 22:55:00,22.2,16.7,30.30,NNW,331,7.0,9.0,79,0.00,,,0.00,0,Wunderground v.1.15,2013-02-21 03:55:00,
2013-02-20 23:04:00,22.2,16.4,30.30,NW,312,7.0,7.0,78,0.00,,,0.00,0,Wunderground v.1.15,2013-02-21 04:04:00,
2013-02-20 23:14:00,22.1,16.3,30.30,North,350,7.0,7.0,78,0.00,,,0.00,0,Wunderground v.1.15,2013-02-21 04:14:00,
2013-02-20 23:19:00,22.1,16.6,30.30,NNW,331,6.0,10.0,79,0.00,,,0.00,0,Wunderground v.1.15,2013-02-21 04:19:00,
2013-02-20 23:24:00,22.0,16.5,30.30,NW,316,6.0,9.0,79,0.00,,,0.00,0,Wunderground v.1.15,2013-02-21 04:24:00,
2013-02-20 23:29:00,22.0,16.5,30.30,NW,321,7.0,11.0,79,0.00,,,0.00,0,Wunderground v.1.15,2013-02-21 04:29:00,
2013-02-20 23:34:00,21.9,16.4,30.30,NW,323,7.0,7.0,79,0.00,,,0.00,0,Wunderground v.1.15,2013-02-21 04:34:00,
2013-02-20 23:39:00,21.9,16.1,30.30,NW,325,7.0,8.0,78,0.00,,,0.00,0,Wunderground v.1.15,2013-02-21 04:39:00,
2013-02-20 23:44:00,21.9,16.1,30.30,NNW,348,7.0,7.0,78,0.00,,,0.00,0,Wunderground v.1.15,2013-02-21 04:44:00,
2013-02-20 23:55:00,21.8,16.0,30.30,North,5,8.0,12.0,78,0.00,,,0.00,0,Wunderground v.1.15,2013-02-21 04:55:00,